Time;durP1;ratioP1;P1;durP2;ratioP2;P2;SDS_P1;SDS_P2;PMS_P1;PMS_P2;Temp;Humidity;BMP_temperature;BMP_pressure;BME280_temperature;BME280_humidity;BME280_pressure;Samples;Min_cycle;Max_cycle;Signal;HPM_P1;HPM_P2
2022/01/07 00:00:59;;;;;;;7.47;2.57;;;;;;;-1.85;100.00;99005.06;5032815;28;20223;-55
2022/01/07 00:03:27;;;;;;;6.50;2.77;;;;;;;-1.85;100.00;99001.66;5033690;28;20230;-55
2022/01/07 00:05:54;;;;;;;8.10;3.00;;;;;;;-1.90;100.00;98999.31;5033536;28;20657;-53
2022/01/07 00:08:21;;;;;;;7.87;2.37;;;;;;;-1.94;100.00;98997.75;5030605;28;20203;-54
2022/01/07 00:10:48;;;;;;;8.43;2.43;;;;;;;-1.91;100.00;98994.22;5029498;28;20269;-54
2022/01/07 00:13:16;;;;;;;6.43;2.40;;;;;;;-1.95;100.00;98991.78;5033297;28;20691;-55
2022/01/07 00:15:44;;;;;;;5.40;2.63;;;;;;;-2.04;100.00;98989.63;5033401;28;20278;-53
2022/01/07 00:18:10;;;;;;;9.47;2.63;;;;;;;-1.95;100.00;98989.25;5033250;28;20266;-53
2022/01/07 00:20:38;;;;;;;6.43;2.60;;;;;;;-2.02;100.00;98987.81;5032759;28;20183;-56
2022/01/07 00:23:05;;;;;;;10.33;2.90;;;;;;;-2.08;100.00;98980.41;5033054;28;20691;-54
2022/01/07 00:25:32;;;;;;;8.70;3.23;;;;;;;-2.06;100.00;98978.59;5031822;28;20190;-53
2022/01/07 00:27:59;;;;;;;10.93;3.10;;;;;;;-2.02;100.00;98975.03;5032904;28;20219;-54
2022/01/07 00:30:27;;;;;;;9.43;3.27;;;;;;;-2.09;100.00;98965.94;5031034;28;20204;-54
2022/01/07 00:32:54;;;;;;;11.00;3.13;;;;;;;-2.14;100.00;98960.22;5033239;28;20194;-55
2022/01/07 00:35:22;;;;;;;6.93;2.63;;;;;;;-2.16;100.00;98956.88;5032624;28;20279;-54
2022/01/07 00:37:50;;;;;;;7.33;2.40;;;;;;;-2.10;100.00;98954.91;5032964;28;20208;-53
2022/01/07 00:40:19;;;;;;;10.10;2.90;;;;;;;-2.09;100.00;98948.03;5032024;28;20257;-56
2022/01/07 00:42:49;;;;;;;10.27;2.73;;;;;;;-2.13;100.00;98956.75;5032841;28;20627;-55
2022/01/07 00:45:16;;;;;;;10.33;2.60;;;;;;;-2.08;100.00;98960.78;5032830;28;20188;-54
2022/01/07 00:47:44;;;;;;;8.17;2.70;;;;;;;-2.04;100.00;98951.25;5032318;28;20280;-54
2022/01/07 00:50:12;;;;;;;9.70;2.73;;;;;;;-2.03;100.00;98952.09;5031440;28;20195;-55
2022/01/07 00:52:39;;;;;;;13.03;2.87;;;;;;;-2.07;100.00;98948.81;5031930;28;20673;-52
2022/01/07 00:55:08;;;;;;;6.20;2.70;;;;;;;-2.08;100.00;98942.88;5032636;28;20199;-54
2022/01/07 00:57:34;;;;;;;10.00;2.53;;;;;;;-2.12;100.00;98949.00;5032578;28;20216;-56
2022/01/07 01:00:01;;;;;;;6.70;2.53;;;;;;;-2.06;100.00;98935.13;5031798;28;20278;-53
2022/01/07 01:02:28;;;;;;;11.33;3.00;;;;;;;-2.00;100.00;98941.72;5032726;28;20679;-53
2022/01/07 01:04:56;;;;;;;6.80;2.50;;;;;;;-2.02;100.00;98936.66;5032447;28;20266;-53
2022/01/07 01:07:23;;;;;;;5.73;2.23;;;;;;;-1.98;100.00;98935.63;5032090;28;20298;-55
2022/01/07 01:09:50;;;;;;;7.37;2.43;;;;;;;-1.96;100.00;98930.47;5031841;28;20225;-54
2022/01/07 01:12:17;;;;;;;8.93;2.07;;;;;;;-1.98;100.00;98937.38;5032110;28;20187;-55
2022/01/07 01:14:43;;;;;;;7.13;2.30;;;;;;;-1.99;100.00;98931.41;5032393;28;20202;-55
2022/01/07 01:17:10;;;;;;;6.63;2.23;;;;;;;-2.02;100.00;98923.88;5031911;28;20584;-52
2022/01/07 01:19:38;;;;;;;12.77;2.63;;;;;;;-2.00;100.00;98926.38;5027161;28;20278;-54
2022/01/07 01:22:08;;;;;;;12.30;2.83;;;;;;;-1.87;100.00;98922.41;5032060;28;20213;-55
2022/01/07 01:24:35;;;;;;;5.57;2.67;;;;;;;-1.91;100.00;98923.44;5031514;28;20436;-53
2022/01/07 01:29:31;;;;;;;7.63;2.23;;;;;;;-1.79;100.00;98934.88;4989683;28;20216;-58
2022/01/07 01:31:58;;;;;;;7.73;2.70;;;;;;;-1.79;100.00;98935.72;4991666;28;20185;-59
2022/01/07 01:34:25;;;;;;;6.97;2.33;;;;;;;-1.83;100.00;98934.19;4982841;28;20204;-55
2022/01/07 01:36:52;;;;;;;9.30;2.30;;;;;;;-1.81;100.00;98936.66;4992040;28;20188;-57
2022/01/07 01:39:20;;;;;;;4.93;2.20;;;;;;;-1.83;100.00;98930.78;4991153;28;20602;-58
2022/01/07 01:41:47;;;;;;;5.83;2.33;;;;;;;-1.82;100.00;98924.75;4991249;28;20212;-58
2022/01/07 01:44:14;;;;;;;9.43;2.63;;;;;;;-1.80;100.00;98928.94;4988774;28;20279;-57
2022/01/07 01:46:41;;;;;;;7.47;2.87;;;;;;;-1.77;100.00;98925.41;4990050;28;20636;-58
2022/01/07 01:49:08;;;;;;;10.43;2.43;;;;;;;-1.73;100.00;98921.00;4990879;28;20254;-58
2022/01/07 01:51:36;;;;;;;6.50;2.00;;;;;;;-1.73;100.00;98926.13;4989087;28;20223;-55
2022/01/07 01:54:06;;;;;;;12.17;2.80;;;;;;;-1.71;100.00;98920.03;4991519;28;20228;-58
2022/01/07 01:56:35;;;;;;;5.73;2.00;;;;;;;-1.75;100.00;98921.06;4991698;28;20267;-56
2022/01/07 01:59:02;;;;;;;4.53;2.13;;;;;;;-1.76;100.00;98919.38;4989867;28;20220;-56
2022/01/07 02:01:29;;;;;;;3.70;1.40;;;;;;;-1.84;100.00;98913.75;4990583;28;20208;-58
2022/01/07 02:03:56;;;;;;;7.87;2.13;;;;;;;-1.87;100.00;98919.84;4991330;28;20287;-57
2022/01/07 02:06:24;;;;;;;6.27;2.27;;;;;;;-1.79;100.00;98917.81;4991578;28;20188;-57
2022/01/07 02:08:52;;;;;;;6.67;1.97;;;;;;;-1.89;100.00;98916.53;4991143;28;20215;-55
2022/01/07 02:11:18;;;;;;;12.53;2.00;;;;;;;-1.95;100.00;98911.66;4990774;28;20197;-55
2022/01/07 02:13:48;;;;;;;7.30;2.10;;;;;;;-1.91;100.00;98925.16;4991434;28;20200;-55
2022/01/07 02:16:15;;;;;;;5.53;1.93;;;;;;;-1.90;100.00;98919.13;4988532;28;20250;-55
2022/01/07 02:18:43;;;;;;;5.33;1.83;;;;;;;-1.99;100.00;98918.63;4990905;28;20646;-56
2022/01/07 02:21:11;;;;;;;10.53;2.30;;;;;;;-1.99;100.00;98918.63;4990060;28;20283;-55
2022/01/07 02:23:38;;;;;;;6.27;1.73;;;;;;;-1.88;100.00;98920.75;4990827;28;20697;-55
2022/01/07 02:26:05;;;;;;;7.67;2.20;;;;;;;-1.84;100.00;98924.00;4990884;28;20197;-55
2022/01/07 02:28:35;;;;;;;6.40;1.90;;;;;;;-1.65;100.00;98918.94;4990730;28;20744;-55
2022/01/07 02:31:02;;;;;;;5.97;2.00;;;;;;;-1.53;100.00;98927.81;4990128;28;20199;-56
2022/01/07 02:33:29;;;;;;;5.90;1.70;;;;;;;-1.41;100.00;98927.28;4990807;28;20284;-54
2022/01/07 02:35:56;;;;;;;6.33;2.10;;;;;;;-1.27;100.00;98913.84;4991010;28;20207;-53
2022/01/07 02:38:24;;;;;;;6.83;2.00;;;;;;;-1.18;100.00;98915.19;4991063;28;20236;-55
2022/01/07 02:40:51;;;;;;;10.93;2.80;;;;;;;-1.08;100.00;98915.56;4989848;28;20195;-53
2022/01/07 02:43:18;;;;;;;5.47;2.23;;;;;;;-1.02;100.00;98919.56;4990500;28;20213;-55
2022/01/07 02:45:45;;;;;;;7.83;2.30;;;;;;;-0.95;100.00;98903.03;4990593;28;20279;-54
2022/01/07 02:48:11;;;;;;;5.77;2.30;;;;;;;-0.83;100.00;98917.84;4990718;28;20714;-55
2022/01/07 02:50:39;;;;;;;11.57;2.40;;;;;;;-0.78;100.00;98903.06;4989859;28;20562;-54
2022/01/07 02:53:08;;;;;;;15.43;2.80;;;;;;;-0.72;100.00;98908.81;4990736;28;20203;-56
2022/01/07 02:55:37;;;;;;;10.37;3.40;;;;;;;-0.63;99.98;98916.06;4990719;28;20431;-56
2022/01/07 02:58:05;;;;;;;9.43;2.97;;;;;;;-0.60;100.00;98913.38;4994600;28;20459;-54
2022/01/07 03:00:32;;;;;;;7.53;3.00;;;;;;;-0.52;100.00;98918.13;4994244;28;20192;-51
2022/01/07 03:03:00;;;;;;;11.70;2.83;;;;;;;-0.49;100.00;98923.94;4994384;28;20207;-55
2022/01/07 03:05:27;;;;;;;13.03;3.03;;;;;;;-0.39;99.21;98920.94;4994498;28;20197;-55
2022/01/07 03:07:55;;;;;;;9.40;3.43;;;;;;;-0.38;98.66;98912.34;4989226;28;20208;-50
2022/01/07 03:10:25;;;;;;;10.37;3.17;;;;;;;-0.33;99.05;98911.19;4993625;28;20270;-51
2022/01/07 03:12:54;;;;;;;7.90;3.33;;;;;;;-0.36;98.28;98908.78;4994454;28;20191;-55
2022/01/07 03:15:21;;;;;;;8.97;3.07;;;;;;;-0.29;98.13;98911.91;4994417;28;20543;-53
2022/01/07 03:17:51;;;;;;;12.63;4.10;;;;;;;-0.34;98.35;98906.16;4994368;28;20205;-55
2022/01/07 03:20:20;;;;;;;12.13;5.17;;;;;;;-0.30;99.50;98903.34;4991957;28;20228;-56
2022/01/07 03:22:48;;;;;;;19.73;6.37;;;;;;;-0.20;99.98;98908.03;4993351;28;20376;-56
2022/01/07 03:25:15;;;;;;;14.50;7.53;;;;;;;-0.12;99.26;98905.09;4991815;28;20223;-52
2022/01/07 03:27:42;;;;;;;15.33;5.03;;;;;;;-0.12;97.23;98905.09;4994096;28;20311;-55
2022/01/07 03:30:13;;;;;;;19.33;8.80;;;;;;;0.08;97.85;98910.06;4993699;28;20272;-53
2022/01/07 03:32:40;;;;;;;18.40;8.53;;;;;;;0.23;96.79;98917.88;4992216;28;20188;-53
2022/01/07 03:35:11;;;;;;;18.87;8.30;;;;;;;0.31;96.61;98915.75;4994256;28;20207;-54
2022/01/07 03:37:38;;;;;;;16.83;7.43;;;;;;;0.44;95.34;98921.94;4991826;28;20213;-52
2022/01/07 03:40:06;;;;;;;17.63;8.43;;;;;;;0.50;92.95;98920.81;4993642;28;20276;-55
2022/01/07 03:42:33;;;;;;;16.80;7.63;;;;;;;0.48;92.76;98916.63;4994044;28;20215;-55
2022/01/07 03:45:00;;;;;;;11.70;6.50;;;;;;;0.47;92.97;98922.69;4994175;28;20675;-54
2022/01/07 03:47:29;;;;;;;16.50;6.90;;;;;;;0.45;92.26;98927.91;4993951;28;20205;-56
2022/01/07 03:49:55;;;;;;;16.07;7.20;;;;;;;0.49;93.06;98913.16;4985652;28;20189;-54
2022/01/07 03:52:22;;;;;;;14.37;8.10;;;;;;;0.56;92.70;98925.59;4994035;28;20744;-50
2022/01/07 03:54:50;;;;;;;15.40;7.60;;;;;;;0.60;92.76;98913.44;4994076;28;20185;-53
2022/01/07 03:57:17;;;;;;;11.93;6.27;;;;;;;0.50;92.96;98907.97;4993829;28;20271;-55
2022/01/07 03:59:44;;;;;;;15.63;7.63;;;;;;;0.46;92.83;98903.88;4993177;28;20194;-51
2022/01/07 04:02:11;;;;;;;17.53;7.87;;;;;;;0.43;93.57;98894.59;4993642;28;20275;-53
2022/01/07 04:04:39;;;;;;;15.47;7.23;;;;;;;0.40;93.25;98881.91;4993774;28;20199;-55
2022/01/07 04:07:06;;;;;;;12.10;7.00;;;;;;;0.39;93.11;98880.25;4992757;28;20549;-51
2022/01/07 04:09:33;;;;;;;13.20;7.00;;;;;;;0.51;92.33;98893.38;4993332;28;20670;-55
2022/01/07 04:12:00;;;;;;;16.60;7.23;;;;;;;0.43;92.70;98894.59;4993395;28;20550;-55
2022/01/07 04:14:27;;;;;;;14.33;6.60;;;;;;;0.42;92.16;98892.94;4993600;28;20182;-55
2022/01/07 04:16:54;;;;;;;16.10;6.50;;;;;;;0.36;92.17;98887.28;4993536;28;20185;-56
2022/01/07 04:19:20;;;;;;;14.30;7.00;;;;;;;0.38;92.11;98890.63;4993648;28;20208;-53
2022/01/07 04:21:49;;;;;;;17.47;5.93;;;;;;;0.29;92.01;98890.19;4992517;28;20284;-56
2022/01/07 04:24:16;;;;;;;13.43;6.10;;;;;;;0.34;92.07;98889.13;4993272;28;20534;-53
2022/01/07 04:26:44;;;;;;;12.53;6.00;;;;;;;0.45;90.92;98891.94;4993451;28;20550;-53
2022/01/07 04:29:11;;;;;;;13.50;6.00;;;;;;;0.62;90.13;98882.50;4992959;28;20769;-55
2022/01/07 04:31:38;;;;;;;14.00;5.60;;;;;;;0.59;90.45;98888.66;4992564;28;20204;-54
2022/01/07 04:34:04;;;;;;;14.57;5.97;;;;;;;0.65;90.86;98890.91;4993181;28;20195;-54
2022/01/07 04:36:31;;;;;;;14.33;5.97;;;;;;;0.78;89.62;98885.91;4993021;28;20678;-54
2022/01/07 04:39:00;;;;;;;12.00;5.87;;;;;;;0.82;89.55;98884.84;4993247;28;20252;-55
2022/01/07 04:41:26;;;;;;;14.33;5.73;;;;;;;0.90;88.52;98891.31;4992387;28;20200;-55
2022/01/07 04:43:53;;;;;;;13.73;4.93;;;;;;;0.98;88.30;98882.28;4992855;28;20603;-54
2022/01/07 04:46:20;;;;;;;10.70;5.07;;;;;;;0.99;88.37;98872.81;4992807;28;20189;-52
2022/01/07 04:48:47;;;;;;;11.50;4.97;;;;;;;0.98;87.52;98878.88;4992879;28;20215;-55
2022/01/07 04:51:13;;;;;;;8.43;4.50;;;;;;;1.03;87.15;98875.16;4992119;28;20663;-52
2022/01/07 04:53:40;;;;;;;11.50;4.57;;;;;;;1.00;86.77;98872.75;4992834;28;20184;-55
2022/01/07 04:56:08;;;;;;;7.40;3.80;;;;;;;0.98;87.35;98878.88;4992727;28;20207;-54
2022/01/07 04:58:35;;;;;;;8.30;3.67;;;;;;;1.03;85.39;98876.88;4991644;28;20293;-55
2022/01/07 05:01:02;;;;;;;7.67;4.03;;;;;;;1.05;86.86;98887.09;4992306;28;20201;-55
2022/01/07 05:03:29;;;;;;;7.83;3.30;;;;;;;1.10;84.36;98869.66;4992605;28;20205;-56
2022/01/07 05:06:06;;;;;;;9.83;3.40;;;;;;;1.33;82.22;98876.94;4992832;28;20284;-55
2022/01/07 05:08:33;;;;;;;10.33;3.77;;;;;;;1.33;81.50;98874.34;4992725;28;20800;-56
2022/01/07 05:11:00;;;;;;;11.93;3.97;;;;;;;1.37;81.47;98867.31;4991724;28;20190;-56
2022/01/07 05:13:28;;;;;;;9.20;3.43;;;;;;;1.32;81.43;98870.13;4992839;28;20648;-55
2022/01/07 05:15:55;;;;;;;9.33;2.73;;;;;;;1.36;81.21;98872.53;4992505;28;20185;-55
2022/01/07 05:18:21;;;;;;;5.00;2.90;;;;;;;1.37;81.02;98869.03;4992239;28;20573;-56
2022/01/07 05:20:48;;;;;;;5.47;3.20;;;;;;;1.36;81.07;98873.38;4989140;28;20200;-55
2022/01/07 05:23:15;;;;;;;9.67;3.20;;;;;;;1.36;81.05;98864.81;5013126;28;20213;-54
2022/01/07 05:25:41;;;;;;;9.57;3.88;;;;;;;1.38;80.83;98870.69;4991343;28;20444;-55
2022/01/07 05:28:08;;;;;;;9.60;3.93;;;;;;;1.36;79.95;98851.94;4992009;28;20231;-54
2022/01/07 05:30:36;;;;;;;4.57;3.10;;;;;;;1.38;80.69;98868.13;4991742;28;20272;-54
2022/01/07 05:33:03;;;;;;;6.73;2.87;;;;;;;1.33;80.08;98846.06;4991935;28;20651;-53
2022/01/07 05:35:30;;;;;;;8.40;3.80;;;;;;;1.33;79.90;98847.81;4991977;28;20193;-56
2022/01/07 05:37:57;;;;;;;5.90;3.07;;;;;;;1.28;80.60;98848.06;4988111;28;20214;-54
2022/01/07 05:40:24;;;;;;;8.63;3.50;;;;;;;1.38;80.15;98842.41;4991015;28;20193;-56
2022/01/07 05:42:51;;;;;;;7.63;3.00;;;;;;;1.29;80.26;98848.91;4991931;28;20193;-54
2022/01/07 05:45:18;;;;;;;8.87;2.77;;;;;;;1.36;78.53;98846.81;4992218;28;20663;-54
2022/01/07 05:47:46;;;;;;;6.07;2.80;;;;;;;1.38;79.31;98853.53;4991065;28;20242;-56
2022/01/07 05:50:13;;;;;;;6.60;2.70;;;;;;;1.41;78.20;98839.66;4990736;28;20194;-55
2022/01/07 05:52:58;;;;;;;8.83;3.47;;;;;;;1.42;78.87;98838.75;4991294;28;20670;-54
2022/01/07 05:55:44;;;;;;;7.57;2.33;;;;;;;1.44;77.88;98831.75;4985413;28;20276;-56
2022/01/07 05:58:11;;;;;;;6.43;2.70;;;;;;;1.58;77.02;98849.00;4986803;28;20217;-54
2022/01/07 06:00:38;;;;;;;8.23;2.97;;;;;;;1.68;75.52;98837.22;4989847;28;20228;-54
2022/01/07 06:03:06;;;;;;;11.00;2.60;;;;;;;1.64;74.75;98837.50;4990942;28;20666;-54
2022/01/07 06:05:33;;;;;;;18.13;6.93;;;;;;;1.54;76.29;98838.03;4983852;28;20308;-54
2022/01/07 06:08:00;;;;;;;7.20;3.70;;;;;;;1.52;76.66;98839.88;4983042;28;20786;-54
2022/01/07 06:10:26;;;;;;;6.50;4.10;;;;;;;1.44;76.51;98824.06;4985649;28;20276;-54
2022/01/07 06:12:53;;;;;;;11.57;7.50;;;;;;;1.42;77.69;98831.88;4989821;28;20671;-50
2022/01/07 06:15:20;;;;;;;9.87;6.17;;;;;;;1.46;76.92;98825.63;4987619;28;20214;-55
2022/01/07 06:17:47;;;;;;;9.50;3.80;;;;;;;1.47;77.02;98826.44;4992059;28;20698;-55
2022/01/07 06:20:18;;;;;;;6.07;2.77;;;;;;;1.50;76.71;98831.41;4991635;28;20195;-57
2022/01/07 06:22:45;;;;;;;7.80;3.10;;;;;;;1.44;76.76;98822.31;4988724;28;20198;-53
2022/01/07 06:25:12;;;;;;;5.70;2.13;;;;;;;1.47;75.74;98832.44;4991882;28;20222;-53
2022/01/07 06:27:39;;;;;;;6.37;2.20;;;;;;;1.56;73.86;98832.81;4984130;28;20256;-55
2022/01/07 06:30:08;;;;;;;5.80;2.23;;;;;;;1.63;72.16;98813.50;4990240;28;20726;-55
2022/01/07 06:32:35;;;;;;;5.37;3.00;;;;;;;1.57;74.67;98814.72;4986525;28;20198;-53
2022/01/07 06:35:02;;;;;;;6.40;2.20;;;;;;;1.49;74.95;98814.31;4990103;28;20217;-54
2022/01/07 06:37:32;;;;;;;4.50;2.50;;;;;;;1.45;75.26;98807.69;4990291;28;20729;-54
2022/01/07 06:39:59;;;;;;;5.60;2.37;;;;;;;1.45;73.65;98813.69;4991113;28;20288;-51
2022/01/07 06:42:25;;;;;;;7.17;2.73;;;;;;;1.36;74.83;98826.22;4992091;28;20284;-54
2022/01/07 06:44:52;;;;;;;7.63;2.13;;;;;;;1.42;74.18;98819.00;4990708;28;20232;-55
2022/01/07 06:47:19;;;;;;;6.10;2.20;;;;;;;1.43;74.56;98828.38;4992225;28;20197;-55
2022/01/07 06:49:46;;;;;;;4.30;2.30;;;;;;;1.46;74.81;98814.50;4992344;28;20668;-53
2022/01/07 06:52:12;;;;;;;6.30;2.43;;;;;;;1.37;74.99;98812.44;4992278;28;20276;-55
2022/01/07 06:54:41;;;;;;;9.97;4.13;;;;;;;1.26;76.38;98813.88;4991602;28;20280;-53
2022/01/07 06:57:08;;;;;;;10.10;3.00;;;;;;;1.31;75.02;98796.44;4992042;28;20268;-51
2022/01/07 06:59:34;;;;;;;8.17;3.17;;;;;;;1.36;74.79;98810.78;4991394;28;20272;-53
2022/01/07 07:02:01;;;;;;;7.07;2.90;;;;;;;1.37;75.83;98805.59;4992236;28;20190;-54
2022/01/07 07:04:29;;;;;;;5.17;2.80;;;;;;;1.37;75.14;98800.44;4992084;28;20272;-53
2022/01/07 07:06:56;;;;;;;6.63;2.57;;;;;;;1.33;75.53;98806.66;4991768;28;20193;-51
2022/01/07 07:09:23;;;;;;;8.63;3.13;;;;;;;1.41;75.44;98807.06;4997875;28;20208;-52
2022/01/07 07:11:51;;;;;;;6.63;2.90;;;;;;;1.41;74.61;98795.94;5011214;28;20191;-54
2022/01/07 07:14:18;;;;;;;7.93;2.77;;;;;;;1.36;75.49;98787.66;5011648;28;20715;-54
2022/01/07 07:16:45;;;;;;;7.37;3.27;;;;;;;1.27;75.06;98781.31;5011557;28;20191;-55
2022/01/07 07:19:14;;;;;;;47.03;19.47;;;;;;;1.23;76.13;98783.22;5011443;28;20287;-54
2022/01/07 07:21:42;;;;;;;12.57;6.30;;;;;;;1.24;75.97;98774.56;4991623;28;20200;-55
2022/01/07 07:24:09;;;;;;;23.00;18.33;;;;;;;1.28;75.92;98773.47;4991736;28;20209;-54
2022/01/07 07:26:36;;;;;;;9.93;5.03;;;;;;;1.27;76.19;98768.44;4991645;28;20272;-53
2022/01/07 07:29:04;;;;;;;7.80;3.13;;;;;;;1.37;75.71;98768.72;4991946;28;20224;-52
2022/01/07 07:31:32;;;;;;;7.57;3.10;;;;;;;1.41;74.95;98768.47;4990889;28;20628;-53
2022/01/07 07:34:20;;;;;;;6.90;3.50;;;;;;;1.42;74.63;98764.16;4991734;28;20189;-49
2022/01/07 07:36:47;;;;;;;5.70;2.57;;;;;;;1.47;74.05;98772.44;4991466;28;20198;-55
2022/01/07 07:39:16;;;;;;;9.63;2.80;;;;;;;1.49;74.50;98768.03;4983812;28;20228;-51
2022/01/07 07:41:44;;;;;;;6.40;3.03;;;;;;;1.46;74.71;98766.47;4989222;28;20197;-50
2022/01/07 07:44:12;;;;;;;6.83;3.10;;;;;;;1.47;74.86;98768.13;4994647;28;20292;-55
2022/01/07 07:46:40;;;;;;;6.93;3.95;;;;;;;1.52;74.56;98767.84;4994145;28;20469;-55
2022/01/07 07:49:08;;;;;;;6.47;3.40;;;;;;;1.52;74.72;98765.25;4993940;28;20214;-53
2022/01/07 07:51:36;;;;;;;8.40;3.07;;;;;;;1.58;74.97;98764.91;4992833;28;20185;-54
2022/01/07 07:54:04;;;;;;;6.80;3.07;;;;;;;1.64;73.36;98762.91;4975938;28;20249;-52
2022/01/07 07:56:31;;;;;;;6.23;2.43;;;;;;;1.68;73.31;98761.78;4993461;28;20216;-54
2022/01/07 07:58:58;;;;;;;4.40;2.63;;;;;;;1.71;72.53;98761.63;4993716;28;20825;-52
2022/01/07 08:01:29;;;;;;;7.87;2.63;;;;;;;1.77;72.86;98766.41;4990660;28;20185;-51
2022/01/07 08:03:56;;;;;;;4.40;2.97;;;;;;;1.80;72.89;98762.78;4992611;28;20205;-56
2022/01/07 08:06:23;;;;;;;5.03;2.57;;;;;;;1.80;71.58;98766.22;4985523;28;20233;-53
2022/01/07 08:08:50;;;;;;;5.20;2.43;;;;;;;1.89;72.37;98759.69;4991689;28;20304;-54
2022/01/07 08:11:17;;;;;;;5.00;2.33;;;;;;;1.87;71.57;98762.34;4991756;28;20182;-54
2022/01/07 08:16:30;;;;;;;9.23;3.23;;;;;;;1.95;70.81;98763.66;4990065;28;20200;-55
2022/01/07 08:18:59;;;;;;;5.23;2.67;;;;;;;1.99;71.04;98770.25;4990080;28;20241;-52
2022/01/07 08:21:28;;;;;;;5.97;3.13;;;;;;;2.01;70.75;98771.00;4990535;28;20555;-55
2022/01/07 08:23:55;;;;;;;7.70;2.40;;;;;;;2.05;71.25;98769.91;4992300;28;20197;-52
2022/01/07 08:26:23;;;;;;;8.67;2.30;;;;;;;2.11;71.69;98761.78;4989850;28;20223;-55
2022/01/07 08:28:54;;;;;;;8.20;2.50;;;;;;;2.17;70.28;98752.84;4991983;28;20220;-54
2022/01/07 08:34:53;;;;;;;7.67;2.77;;;;;;;2.25;70.88;98757.53;4991742;28;20189;-55
2022/01/07 08:36:59;;;;;;;4.17;2.13;;;;;;;2.36;69.45;98740.50;4993098;28;20191;-55
2022/01/07 08:39:26;;;;;;;3.57;2.30;;;;;;;2.46;69.48;98733.00;4992741;28;20234;-55
2022/01/07 08:41:53;;;;;;;4.37;2.00;;;;;;;2.47;68.11;98734.66;4992630;28;20202;-54
2022/01/07 08:44:22;;;;;;;5.00;2.03;;;;;;;2.56;67.32;98720.38;4993124;28;20213;-53
2022/01/07 08:46:49;;;;;;;4.33;2.17;;;;;;;2.61;67.40;98726.06;4992916;28;20237;-56
2022/01/07 08:49:17;;;;;;;4.77;2.37;;;;;;;2.63;66.83;98711.34;4991482;28;20221;-54
2022/01/07 08:51:45;;;;;;;3.57;2.07;;;;;;;2.60;67.60;98713.28;4992003;28;20185;-57
2022/01/07 08:54:12;;;;;;;2.93;1.77;;;;;;;2.63;67.66;98708.75;4993114;28;20197;-56
2022/01/07 08:56:39;;;;;;;6.27;2.93;;;;;;;2.73;66.07;98714.13;4992996;28;20232;-52
2022/01/07 08:59:06;;;;;;;3.10;2.43;;;;;;;2.83;66.62;98709.19;4992806;28;20205;-55
2022/01/07 09:01:33;;;;;;;7.30;3.77;;;;;;;2.91;65.60;98713.88;4992385;28;20189;-55
2022/01/07 09:03:59;;;;;;;3.30;1.93;;;;;;;2.89;63.99;98713.16;4991555;28;20749;-57
2022/01/07 09:06:27;;;;;;;4.03;1.90;;;;;;;3.02;65.76;98719.16;4988684;28;20644;-55
2022/01/07 09:08:54;;;;;;;3.67;1.60;;;;;;;3.04;64.95;98722.47;4994024;28;20321;-54
2022/01/07 09:11:21;;;;;;;4.63;2.17;;;;;;;3.09;66.38;98722.16;4989406;28;20190;-55
2022/01/07 09:13:51;;;;;;;3.30;1.60;;;;;;;3.04;65.00;98722.47;4989601;28;20189;-56
2022/01/07 09:16:17;;;;;;;3.40;1.90;;;;;;;3.15;65.72;98731.25;4991144;28;20199;-55
2022/01/07 09:18:44;;;;;;;3.37;1.57;;;;;;;3.07;64.64;98727.44;4991088;28;21014;-54
2022/01/07 09:21:11;;;;;;;5.63;2.67;;;;;;;2.99;65.48;98729.69;4986781;28;20189;-55
2022/01/07 09:23:41;;;;;;;6.37;1.80;;;;;;;3.03;65.41;98725.13;4991100;28;20272;-56
2022/01/07 09:26:09;;;;;;;8.03;2.70;;;;;;;3.04;66.23;98717.31;4991338;28;20722;-55
2022/01/07 09:28:36;;;;;;;4.87;1.97;;;;;;;3.01;65.48;98717.50;4990858;28;20225;-56
2022/01/07 09:31:02;;;;;;;3.93;2.10;;;;;;;2.97;66.81;98721.22;4990547;28;20288;-52
2022/01/07 09:33:29;;;;;;;6.47;2.00;;;;;;;3.08;66.47;98723.94;4990971;28;20212;-54
2022/01/07 09:35:56;;;;;;;3.97;1.93;;;;;;;3.19;65.37;98728.38;4990960;28;20185;-55
2022/01/07 09:38:25;;;;;;;4.77;1.87;;;;;;;3.01;65.84;98730.41;4990779;28;20236;-55
2022/01/07 09:40:53;;;;;;;6.00;3.60;;;;;;;2.99;66.63;98724.53;4990079;28;20190;-57
2022/01/07 09:43:21;;;;;;;4.63;2.10;;;;;;;3.07;65.03;98734.31;4991091;28;20197;-54
2022/01/07 09:45:48;;;;;;;3.57;1.73;;;;;;;3.09;67.48;98730.72;4991041;28;20228;-51
2022/01/07 09:48:15;;;;;;;5.77;2.00;;;;;;;3.06;66.20;98751.56;4990219;28;20233;-56
2022/01/07 09:50:41;;;;;;;7.23;1.73;;;;;;;3.08;67.25;98723.09;4990963;28;20279;-57
2022/01/07 09:53:12;;;;;;;7.87;2.57;;;;;;;2.89;66.12;98736.34;4990891;28;20189;-53
2022/01/07 09:55:39;;;;;;;3.77;1.97;;;;;;;2.86;66.41;98746.88;4990901;28;20181;-55
2022/01/07 09:58:08;;;;;;;3.83;1.90;;;;;;;2.85;68.31;98735.72;4990466;28;20295;-54
2022/01/07 10:00:40;;;;;;;4.93;1.90;;;;;;;2.97;67.58;98733.28;4987595;28;20202;-54
2022/01/07 10:03:08;;;;;;;7.03;3.67;;;;;;;2.90;68.21;98740.59;4988547;28;20205;-54
2022/01/07 10:05:41;;;;;;;4.80;2.27;;;;;;;2.68;70.27;98736.81;4988208;28;20215;-53
2022/01/07 10:08:25;;;;;;;3.97;1.97;;;;;;;2.68;71.42;98735.97;4989533;28;20228;-56
2022/01/07 10:11:14;;;;;;;5.97;2.20;;;;;;;2.29;73.57;98733.22;5001044;28;20252;-52
2022/01/07 10:13:43;;;;;;;5.93;2.40;;;;;;;2.32;75.41;98723.56;4988818;28;20256;-51
2022/01/07 10:16:15;;;;;;;5.80;2.67;;;;;;;2.27;76.87;98717.03;4990370;28;20189;-55
2022/01/07 10:18:42;;;;;;;7.77;2.63;;;;;;;2.28;77.80;98714.38;4989911;28;20612;-56
2022/01/07 10:21:11;;;;;;;6.17;2.83;;;;;;;2.30;77.74;98703.97;4989724;28;20197;-56
2022/01/07 10:23:38;;;;;;;6.13;2.97;;;;;;;2.50;76.62;98700.16;4990407;28;20196;-53
2022/01/07 10:26:14;;;;;;;8.10;2.83;;;;;;;2.54;76.87;98695.63;4990256;28;20227;-51
2022/01/07 10:28:43;;;;;;;7.60;3.00;;;;;;;2.53;76.85;98701.69;4987058;28;20228;-53
2022/01/07 10:31:10;;;;;;;6.77;2.27;;;;;;;2.74;75.41;98702.91;4989124;28;20197;-56
2022/01/07 10:33:39;;;;;;;5.00;2.43;;;;;;;2.71;75.13;98708.25;4990351;28;20185;-53
2022/01/07 10:36:18;;;;;;;6.77;2.53;;;;;;;2.91;75.14;98701.81;4989916;28;20765;-55
2022/01/07 10:38:51;;;;;;;5.67;2.47;;;;;;;3.05;72.75;98697.50;4989091;28;20217;-55
2022/01/07 10:41:18;;;;;;;7.33;3.10;;;;;;;2.98;74.21;98706.56;4987345;28;20235;-55
2022/01/07 10:43:47;;;;;;;4.77;2.90;;;;;;;3.03;73.97;98704.50;4990068;28;20199;-53
2022/01/07 10:46:19;;;;;;;5.67;2.63;;;;;;;2.96;74.78;98706.66;4990108;28;20213;-53
2022/01/07 10:48:49;;;;;;;6.03;2.90;;;;;;;2.99;75.63;98693.56;4989959;28;20220;-56
2022/01/07 10:51:19;;;;;;;8.70;2.97;;;;;;;2.65;75.04;98685.44;4986946;28;20197;-54
2022/01/07 10:53:49;;;;;;;5.87;2.80;;;;;;;2.84;75.30;98690.22;4988781;28;20197;-51
2022/01/07 10:56:20;;;;;;;5.13;2.40;;;;;;;2.95;74.20;98677.47;4987614;28;20554;-53
2022/01/07 10:58:57;;;;;;;3.43;2.43;;;;;;;2.89;75.14;98683.03;4989852;28;20533;-57
2022/01/07 11:01:37;;;;;;;7.23;2.50;;;;;;;2.84;74.03;98664.44;4985687;28;20220;-55
2022/01/07 11:04:07;;;;;;;5.00;2.30;;;;;;;3.01;72.82;98662.50;4988259;28;20220;-53
2022/01/07 11:06:35;;;;;;;4.57;2.30;;;;;;;3.21;74.40;98650.84;4987478;28;20753;-55
2022/01/07 11:09:03;;;;;;;4.37;2.17;;;;;;;3.30;71.78;98663.13;4990986;28;20725;-52
2022/01/07 11:11:31;;;;;;;8.63;2.60;;;;;;;3.15;71.33;98659.84;5001295;28;20200;-54
2022/01/07 11:14:06;;;;;;;4.97;2.47;;;;;;;3.21;71.46;98650.84;4985078;28;20228;-56
2022/01/07 11:16:33;;;;;;;4.63;2.60;;;;;;;3.07;72.11;98646.63;4989042;28;20188;-53
2022/01/07 11:19:00;;;;;;;6.17;2.70;;;;;;;3.11;71.86;98645.50;4988449;28;20602;-52
2022/01/07 11:21:27;;;;;;;5.07;2.67;;;;;;;3.00;71.79;98658.28;4994154;28;20199;-55
2022/01/07 11:23:54;;;;;;;6.63;2.57;;;;;;;3.02;77.00;98646.97;4994617;28;20280;-59
2022/01/07 11:26:21;;;;;;;16.03;5.87;;;;;;;3.95;83.33;98648.38;4994734;28;20217;-52
2022/01/07 11:28:57;;;;;;;14.27;4.40;;;;;;;4.60;76.93;98653.28;4994650;28;20237;-53
2022/01/07 11:31:25;;;;;;;5.47;2.57;;;;;;;4.32;68.79;98650.09;4993226;28;20659;-58
2022/01/07 11:34:25;;;;;;;5.20;2.23;;;;;;;4.18;68.84;98656.28;4994802;28;20689;-57
2022/01/07 11:36:52;;;;;;;7.27;3.10;;;;;;;4.11;69.35;98650.69;4994617;28;20189;-56
2022/01/07 11:39:22;;;;;;;6.23;2.40;;;;;;;4.12;69.23;98654.13;4992861;28;20214;-56
2022/01/07 11:41:53;;;;;;;8.13;2.30;;;;;;;3.77;69.97;98650.47;4991833;28;20256;-57
2022/01/07 11:44:26;;;;;;;4.33;2.30;;;;;;;3.79;71.58;98663.31;4994456;28;20210;-57
2022/01/07 11:47:23;;;;;;;6.47;2.43;;;;;;;3.50;69.86;98659.22;4994262;28;20214;-58